Stolt Dipper — ZCMY3 — position and weather

sailwx.info

Track history (hours):
 
Tides and Currents Weather Stations Pressure Air Temp Water Temp Dewpoint Dewpoint Depression Visibility Wind Speed Wind Dir Waves Ship Positions

Stolt Dipper

Last reported at 2014-Aug-27 15:25 UTC. Time now 2014-Aug-28 15:28 UTC.
Position N 46°03' W 001°14'.

Length 96 m; draft 5.2 m.

Type: Ship (hazmat cat B). MMSI: 319036000.

Date/timePositionNaut miles runAvg speedWind from/ knotsBaromVisibWave heightAir tempDewpointWater temp
2014-Aug-27 15:25N 46°03' W 001°14'1213.5
2014-Aug-27 14:34N 46°07' W 001°30'1312.8
2014-Aug-27 13:33N 46°11' W 001°47'1212.4
2014-Aug-27 12:33N 46°19' W 002°01'1312.5
2014-Aug-27 11:33N 46°27' W 002°15'3511.7
2014-Aug-27 08:33N 46°58' W 002°40'  
2014-Aug-24 23:33N 47°52' W 005°00'1111.0
2014-Aug-24 22:33N 47°58' W 005°14'1211.9
2014-Aug-24 21:33N 48°05' W 005°29'1211.5
2014-Aug-24 20:33N 48°12' W 005°42'27511.0
2014-Aug-23 19:32N 50°32' E 000°22'18511.6
2014-Aug-23 03:32N 52°48' E 003°44'5511.0
2014-Aug-22 22:33N 53°29' E 004°44'1212.0
2014-Aug-22 21:33N 53°34' E 005°03'1211.8
2014-Aug-22 20:33N 53°37' E 005°22'1111.1
2014-Aug-22 19:33N 53°41' E 005°40'1110.6
2014-Aug-22 18:33N 53°44' E 005°57'5610.4
2014-Aug-22 13:07N 53°60' E 007°29'610.3
2014-Aug-22 12:33N 54°01' E 007°39'1110.5
2014-Aug-22 11:33N 54°01' E 007°57'1110.7
2014-Aug-22 10:32N 54°00' E 008°15'1111.7
2014-Aug-22 09:34N 53°58' E 008°34'1010.4
2014-Aug-22 08:33N 53°51' E 008°47'10 9.8
2014-Aug-22 07:33N 53°52' E 009°03'10 9.9
2014-Aug-22 06:33N 53°51' E 009°20'1313.5
2014-Aug-22 05:34N 53°39' E 009°31'1212.3
2014-Aug-22 04:33N 53°33' E 009°49'5 4.7
2014-Aug-22 03:25N 53°31' E 009°57'0 0.0
2014-Aug-22 02:28N 53°31' E 009°57'0 0.0
2014-Aug-22 01:31N 53°31' E 009°57'0 0.0
2014-Aug-22 00:31N 53°31' E 009°57'0 0.0
2014-Aug-21 23:32N 53°31' E 009°57'0 0.0
2014-Aug-21 22:28N 53°31' E 009°57'0 0.0
2014-Aug-21 21:28N 53°31' E 009°57'0 0.0
2014-Aug-21 20:28N 53°31' E 009°57'0 0.0
2014-Aug-21 19:28N 53°31' E 009°57'0 0.0
2014-Aug-21 18:31N 53°31' E 009°57'0 0.0
2014-Aug-21 17:22N 53°31' E 009°57'0 0.0
2014-Aug-21 16:28N 53°31' E 009°57'0 0.0
2014-Aug-21 15:28N 53°31' E 009°57'0 0.0
2014-Aug-21 14:28N 53°31' E 009°57'0 0.0
2014-Aug-21 13:31N 53°31' E 009°57'0 0.0
2014-Aug-21 12:32N 53°31' E 009°57'0 0.0
2014-Aug-21 11:22N 53°31' E 009°57'0 0.0
2014-Aug-21 10:28N 53°31' E 009°57'0 0.0
2014-Aug-21 09:31N 53°31' E 009°57'0 0.0
2014-Aug-21 08:31N 53°31' E 009°57'0 0.2
2014-Aug-21 07:29N 53°31' E 009°57'3 2.7
2014-Aug-21 06:24N 53°32' E 009°53'0 0.0
2014-Aug-21 05:33N 53°32' E 009°53'0 0.0
2014-Aug-21 04:30N 53°32' E 009°53'0 0.0
2014-Aug-21 03:30N 53°32' E 009°53'0 0.0
2014-Aug-21 02:30N 53°32' E 009°53'0 0.0
2014-Aug-21 01:33N 53°32' E 009°53'0 0.0
2014-Aug-21 00:30N 53°32' E 009°53'0 0.0
2014-Aug-20 23:33N 53°32' E 009°53'0 0.0
2014-Aug-20 22:30N 53°32' E 009°53'0 0.0
2014-Aug-20 21:30N 53°32' E 009°53'0 0.0
2014-Aug-20 20:33N 53°32' E 009°53'0 0.0
2014-Aug-20 19:33N 53°32' E 009°53'0 0.0
2014-Aug-20 18:33N 53°32' E 009°53'0 0.0
2014-Aug-20 17:33N 53°32' E 009°53'0 0.0
2014-Aug-20 16:30N 53°32' E 009°53'0 0.0
2014-Aug-20 15:30N 53°32' E 009°53'0 0.0
2014-Aug-20 14:30N 53°32' E 009°53'0 0.0
2014-Aug-20 13:33N 53°32' E 009°53'0 0.0
2014-Aug-20 12:33N 53°32' E 009°53'0 0.0
2014-Aug-20 11:33N 53°32' E 009°53'0 0.0
2014-Aug-20 10:33N 53°32' E 009°53'0 0.0
2014-Aug-20 09:33N 53°32' E 009°53'0 0.0
2014-Aug-20 08:33N 53°32' E 009°53'0 0.0
2014-Aug-20 07:24N 53°32' E 009°53'0 0.1
2014-Aug-20 04:33N 53°33' E 009°53'3 1.3
2014-Aug-20 02:07N 53°32' E 009°59'0 0.0
2014-Aug-19 23:13N 53°32' E 009°59'0 0.0
2014-Aug-19 22:31N 53°32' E 009°59'0 0.0
2014-Aug-19 21:31N 53°32' E 009°59'0 0.0
2014-Aug-19 20:10N 53°32' E 009°59'0 0.0
2014-Aug-19 19:13N 53°32' E 009°59'0 0.0
2014-Aug-19 18:19N 53°32' E 009°59'0 0.0
2014-Aug-19 17:31N 53°32' E 009°59'0 0.0
2014-Aug-19 16:31N 53°32' E 009°59'0 0.0
2014-Aug-19 15:25N 53°32' E 009°59'0 0.0
2014-Aug-19 14:25N 53°32' E 009°59'0 0.0
2014-Aug-19 13:31N 53°32' E 009°59'0 0.0
2014-Aug-19 12:25N 53°32' E 009°59'0 0.0
2014-Aug-19 11:31N 53°32' E 009°59'0 0.0
2014-Aug-19 10:25N 53°32' E 009°59'4 5.1
2014-Aug-19 09:34N 53°33' E 009°51'1312.7
2014-Aug-19 08:33N 53°38' E 009°32'1313.5
2014-Aug-19 07:34N 53°50' E 009°21'1312.8
2014-Aug-19 06:33N 53°51' E 008°59'1312.6
2014-Aug-19 05:34N 53°56' E 008°40'1413.4
2014-Aug-19 04:32N 53°59' E 008°17'7412.4
2014-Aug-18 22:33N 53°43' E 006°14'1212.3
2014-Aug-18 21:34N 53°39' E 005°54'1212.0
2014-Aug-18 20:33N 53°35' E 005°35'1211.6
2014-Aug-18 19:34N 53°32' E 005°17'1211.6
2014-Aug-18 18:33N 53°28' E 004°58'1110.9
2014-Aug-18 17:33N 53°22' E 004°43'1110.8
2014-Aug-18 16:32N 53°12' E 004°34'1010.7
2014-Aug-18 15:33N 53°03' E 004°25'1010.5
2014-Aug-18 14:33N 52°54' E 004°17'1010.4
2014-Aug-18 13:34N 52°45' E 004°09'1110.7
2014-Aug-18 12:34N 52°36' E 003°60'1110.3
2014-Aug-18 11:32N 52°26' E 003°53'1010.4
2014-Aug-18 10:34N 52°16' E 003°52'1010.5
2014-Aug-18 09:33N 52°06' E 003°56'10 9.6
2014-Aug-18 08:33N 51°59' E 004°06'10 9.5
2014-Aug-18 07:33N 51°54' E 004°20'  
Track history (hours):
 
Tides and Currents Weather Stations Pressure Air Temp Water Temp Dewpoint Dewpoint Depression Visibility Wind Speed Wind Dir Waves Ship Positions

Stolt Dipper

Last reported at 2014-Aug-27 15:25 UTC. Time now 2014-Aug-28 15:28 UTC.
Position N 46°03' W 001°14'.

Length 96 m; draft 5.2 m.

Type: Ship (hazmat cat B). MMSI: 319036000.

Date/timePositionNaut miles runAvg speedWind from/ knotsBaromVisibWave heightAir tempDewpointWater temp
2014-Aug-27 15:25N 46°03' W 001°14'1213.5
2014-Aug-27 14:34N 46°07' W 001°30'1312.8
2014-Aug-27 13:33N 46°11' W 001°47'1212.4
2014-Aug-27 12:33N 46°19' W 002°01'1312.5
2014-Aug-27 11:33N 46°27' W 002°15'3511.7
2014-Aug-27 08:33N 46°58' W 002°40'  
2014-Aug-24 23:33N 47°52' W 005°00'1111.0
2014-Aug-24 22:33N 47°58' W 005°14'1211.9
2014-Aug-24 21:33N 48°05' W 005°29'1211.5
2014-Aug-24 20:33N 48°12' W 005°42'27511.0
2014-Aug-23 19:32N 50°32' E 000°22'18511.6
2014-Aug-23 03:32N 52°48' E 003°44'5511.0
2014-Aug-22 22:33N 53°29' E 004°44'1212.0
2014-Aug-22 21:33N 53°34' E 005°03'1211.8
2014-Aug-22 20:33N 53°37' E 005°22'1111.1
2014-Aug-22 19:33N 53°41' E 005°40'1110.6
2014-Aug-22 18:33N 53°44' E 005°57'5610.4
2014-Aug-22 13:07N 53°60' E 007°29'610.3
2014-Aug-22 12:33N 54°01' E 007°39'1110.5
2014-Aug-22 11:33N 54°01' E 007°57'1110.7
2014-Aug-22 10:32N 54°00' E 008°15'1111.7
2014-Aug-22 09:34N 53°58' E 008°34'1010.4
2014-Aug-22 08:33N 53°51' E 008°47'10 9.8
2014-Aug-22 07:33N 53°52' E 009°03'10 9.9
2014-Aug-22 06:33N 53°51' E 009°20'1313.5
2014-Aug-22 05:34N 53°39' E 009°31'1212.3
2014-Aug-22 04:33N 53°33' E 009°49'5 4.7
2014-Aug-22 03:25N 53°31' E 009°57'0 0.0
2014-Aug-22 02:28N 53°31' E 009°57'0 0.0
2014-Aug-22 01:31N 53°31' E 009°57'0 0.0
2014-Aug-22 00:31N 53°31' E 009°57'0 0.0
2014-Aug-21 23:32N 53°31' E 009°57'0 0.0
2014-Aug-21 22:28N 53°31' E 009°57'0 0.0
2014-Aug-21 21:28N 53°31' E 009°57'0 0.0
2014-Aug-21 20:28N 53°31' E 009°57'0 0.0
2014-Aug-21 19:28N 53°31' E 009°57'0 0.0
2014-Aug-21 18:31N 53°31' E 009°57'0 0.0
2014-Aug-21 17:22N 53°31' E 009°57'0 0.0
2014-Aug-21 16:28N 53°31' E 009°57'0 0.0
2014-Aug-21 15:28N 53°31' E 009°57'0 0.0
2014-Aug-21 14:28N 53°31' E 009°57'0 0.0
2014-Aug-21 13:31N 53°31' E 009°57'0 0.0
2014-Aug-21 12:32N 53°31' E 009°57'0 0.0
2014-Aug-21 11:22N 53°31' E 009°57'0 0.0
2014-Aug-21 10:28N 53°31' E 009°57'0 0.0
2014-Aug-21 09:31N 53°31' E 009°57'0 0.0
2014-Aug-21 08:31N 53°31' E 009°57'0 0.2
2014-Aug-21 07:29N 53°31' E 009°57'3 2.7
2014-Aug-21 06:24N 53°32' E 009°53'0 0.0
2014-Aug-21 05:33N 53°32' E 009°53'0 0.0
2014-Aug-21 04:30N 53°32' E 009°53'0 0.0
2014-Aug-21 03:30N 53°32' E 009°53'0 0.0
2014-Aug-21 02:30N 53°32' E 009°53'0 0.0
2014-Aug-21 01:33N 53°32' E 009°53'0 0.0
2014-Aug-21 00:30N 53°32' E 009°53'0 0.0
2014-Aug-20 23:33N 53°32' E 009°53'0 0.0
2014-Aug-20 22:30N 53°32' E 009°53'0 0.0
2014-Aug-20 21:30N 53°32' E 009°53'0 0.0
2014-Aug-20 20:33N 53°32' E 009°53'0 0.0
2014-Aug-20 19:33N 53°32' E 009°53'0 0.0
2014-Aug-20 18:33N 53°32' E 009°53'0 0.0
2014-Aug-20 17:33N 53°32' E 009°53'0 0.0
2014-Aug-20 16:30N 53°32' E 009°53'0 0.0
2014-Aug-20 15:30N 53°32' E 009°53'0 0.0
2014-Aug-20 14:30N 53°32' E 009°53'0 0.0
2014-Aug-20 13:33N 53°32' E 009°53'0 0.0
2014-Aug-20 12:33N 53°32' E 009°53'0 0.0
2014-Aug-20 11:33N 53°32' E 009°53'0 0.0
2014-Aug-20 10:33N 53°32' E 009°53'0 0.0
2014-Aug-20 09:33N 53°32' E 009°53'0 0.0
2014-Aug-20 08:33N 53°32' E 009°53'0 0.0
2014-Aug-20 07:24N 53°32' E 009°53'0 0.1
2014-Aug-20 04:33N 53°33' E 009°53'3 1.3
2014-Aug-20 02:07N 53°32' E 009°59'0 0.0
2014-Aug-19 23:13N 53°32' E 009°59'0 0.0
2014-Aug-19 22:31N 53°32' E 009°59'0 0.0
2014-Aug-19 21:31N 53°32' E 009°59'0 0.0
2014-Aug-19 20:10N 53°32' E 009°59'0 0.0
2014-Aug-19 19:13N 53°32' E 009°59'0 0.0
2014-Aug-19 18:19N 53°32' E 009°59'0 0.0
2014-Aug-19 17:31N 53°32' E 009°59'0 0.0
2014-Aug-19 16:31N 53°32' E 009°59'0 0.0
2014-Aug-19 15:25N 53°32' E 009°59'0 0.0
2014-Aug-19 14:25N 53°32' E 009°59'0 0.0
2014-Aug-19 13:31N 53°32' E 009°59'0 0.0
2014-Aug-19 12:25N 53°32' E 009°59'0 0.0
2014-Aug-19 11:31N 53°32' E 009°59'0 0.0
2014-Aug-19 10:25N 53°32' E 009°59'4 5.1
2014-Aug-19 09:34N 53°33' E 009°51'1312.7
2014-Aug-19 08:33N 53°38' E 009°32'1313.5
2014-Aug-19 07:34N 53°50' E 009°21'1312.8
2014-Aug-19 06:33N 53°51' E 008°59'1312.6
2014-Aug-19 05:34N 53°56' E 008°40'1413.4
2014-Aug-19 04:32N 53°59' E 008°17'7412.4
2014-Aug-18 22:33N 53°43' E 006°14'1212.3
2014-Aug-18 21:34N 53°39' E 005°54'1212.0
2014-Aug-18 20:33N 53°35' E 005°35'1211.6
2014-Aug-18 19:34N 53°32' E 005°17'1211.6
2014-Aug-18 18:33N 53°28' E 004°58'1110.9
2014-Aug-18 17:33N 53°22' E 004°43'1110.8
2014-Aug-18 16:32N 53°12' E 004°34'1010.7
2014-Aug-18 15:33N 53°03' E 004°25'1010.5
2014-Aug-18 14:33N 52°54' E 004°17'1010.4
2014-Aug-18 13:34N 52°45' E 004°09'1110.7
2014-Aug-18 12:34N 52°36' E 003°60'1110.3
2014-Aug-18 11:32N 52°26' E 003°53'1010.4
2014-Aug-18 10:34N 52°16' E 003°52'1010.5
2014-Aug-18 09:33N 52°06' E 003°56'10 9.6
2014-Aug-18 08:33N 51°59' E 004°06'10 9.5
2014-Aug-18 07:33N 51°54' E 004°20'  

Dump ship's entire track history